createdAt,value
2019-01-02T00:02:19.743Z,10.97
2019-01-02T00:04:48.116Z,11.77
2019-01-02T00:07:16.098Z,15.17
2019-01-02T00:09:43.827Z,16.97
2019-01-02T00:12:11.469Z,10.43
2019-01-02T00:14:38.724Z,12.53
2019-01-02T00:17:06.488Z,12.57
2019-01-02T00:19:33.649Z,11.20
2019-01-02T00:22:01.629Z,17.37
2019-01-02T00:24:29.189Z,14.17
2019-01-02T00:26:56.730Z,7.33
2019-01-02T00:29:25.068Z,14.37
2019-01-02T00:31:52.557Z,9.97
2019-01-02T00:34:20.895Z,10.00
2019-01-02T00:36:48.278Z,11.10
2019-01-02T00:39:15.985Z,9.40
2019-01-02T00:41:43.098Z,11.90
2019-01-02T00:44:10.909Z,11.50
2019-01-02T00:46:38.391Z,7.27
2019-01-02T00:49:06.557Z,10.73
2019-01-02T00:51:34.631Z,14.53
2019-01-02T00:54:02.353Z,12.07
2019-01-02T00:56:29.731Z,10.50
2019-01-02T00:58:57.836Z,18.07
2019-01-02T01:01:25.313Z,10.13
2019-01-02T01:03:52.854Z,9.03
2019-01-02T01:06:20.901Z,12.20
2019-01-02T01:08:48.610Z,13.50
2019-01-02T01:11:15.844Z,10.20
2019-01-02T01:13:43.360Z,14.27
2019-01-02T01:16:11.101Z,15.33
2019-01-02T01:18:39.547Z,13.00
2019-01-02T01:21:07.089Z,16.50
2019-01-02T01:23:34.637Z,9.07
2019-01-02T01:26:02.312Z,13.80
2019-01-02T01:28:29.973Z,11.57
2019-01-02T01:30:57.958Z,12.50
2019-01-02T01:33:25.407Z,9.77
2019-01-02T01:35:52.973Z,15.47
2019-01-02T01:38:20.816Z,18.33
2019-01-02T01:40:48.986Z,16.93
2019-01-02T01:43:16.795Z,12.33
2019-01-02T01:45:44.148Z,8.17
2019-01-02T01:48:11.768Z,13.53
2019-01-02T01:50:39.674Z,10.33
2019-01-02T01:53:08.062Z,12.87
2019-01-02T01:55:35.792Z,14.13
2019-01-02T01:58:03.415Z,10.17
2019-01-02T02:00:31.644Z,13.77
2019-01-02T02:02:58.733Z,11.93
2019-01-02T02:05:26.557Z,12.97
2019-01-02T02:07:54.390Z,14.40
2019-01-02T02:10:22.158Z,6.77
2019-01-02T02:12:49.409Z,7.97
2019-01-02T02:15:16.762Z,8.60
2019-01-02T02:17:44.942Z,11.50
2019-01-02T02:20:13.455Z,11.97
2019-01-02T02:22:41.327Z,12.33
2019-01-02T02:25:15.461Z,12.47
2019-01-02T02:27:43.797Z,8.47
2019-01-02T02:30:12.029Z,15.47
2019-01-02T02:32:39.935Z,13.40
2019-01-02T02:35:08.487Z,15.93
2019-01-02T02:37:36.421Z,17.80
2019-01-02T02:40:04.664Z,19.40
2019-01-02T02:42:32.788Z,14.67
2019-01-02T02:45:00.689Z,14.33
2019-01-02T02:47:28.653Z,13.17
2019-01-02T02:49:56.465Z,21.53
2019-01-02T02:52:24.081Z,14.70
2019-01-02T02:54:54.741Z,18.20
2019-01-02T02:57:24.568Z,11.50
2019-01-02T02:59:54.325Z,14.00
2019-01-02T03:02:22.104Z,14.30
2019-01-02T03:04:49.616Z,18.57
2019-01-02T03:07:18.418Z,15.87
2019-01-02T03:09:46.284Z,18.57
2019-01-02T03:12:13.692Z,16.53
2019-01-02T03:14:41.258Z,14.33
2019-01-02T03:17:08.626Z,12.17
2019-01-02T03:19:36.279Z,8.67
2019-01-02T03:22:04.083Z,13.40
2019-01-02T03:24:31.862Z,15.10
2019-01-02T03:26:59.992Z,14.03
2019-01-02T03:29:27.136Z,13.83
2019-01-02T03:31:54.960Z,14.63
2019-01-02T03:34:23.176Z,8.67
2019-01-02T03:36:50.488Z,16.37
2019-01-02T03:39:18.572Z,17.47
2019-01-02T03:41:46.689Z,21.20
2019-01-02T03:44:14.312Z,13.87
2019-01-02T03:46:41.581Z,13.17
2019-01-02T03:49:08.926Z,15.50
2019-01-02T03:51:36.954Z,15.83
2019-01-02T03:54:04.591Z,25.43
2019-01-02T03:56:32.363Z,18.33
2019-01-02T03:59:00.239Z,11.93
2019-01-02T04:01:28.109Z,14.37
2019-01-02T04:03:55.714Z,10.77
2019-01-02T04:06:23.096Z,13.50
2019-01-02T04:08:50.834Z,14.73
2019-01-02T04:11:18.657Z,14.40
2019-01-02T04:13:46.058Z,15.80
2019-01-02T04:16:13.969Z,14.87
2019-01-02T04:18:41.910Z,19.43
2019-01-02T04:21:09.471Z,13.33
2019-01-02T04:23:37.349Z,17.17
2019-01-02T04:26:04.596Z,19.20
2019-01-02T04:28:32.376Z,13.77
2019-01-02T04:30:59.650Z,19.30
2019-01-02T04:33:27.639Z,10.27
2019-01-02T04:35:54.861Z,13.77
2019-01-02T04:38:22.629Z,14.87
2019-01-02T04:40:50.117Z,17.03
2019-01-02T04:43:17.489Z,12.30
2019-01-02T04:45:45.011Z,18.00
2019-01-02T04:48:12.405Z,10.90
2019-01-02T04:50:39.673Z,17.83
2019-01-02T04:53:06.914Z,14.57
2019-01-02T04:55:34.420Z,16.80
2019-01-02T04:58:02.138Z,20.70
2019-01-02T05:00:30.267Z,13.57
2019-01-02T05:02:58.044Z,12.57
2019-01-02T05:05:25.562Z,12.73
2019-01-02T05:07:52.692Z,13.87
2019-01-02T05:10:20.623Z,14.10
2019-01-02T05:12:48.033Z,12.80
2019-01-02T05:15:15.265Z,17.13
2019-01-02T05:17:43.312Z,12.67
2019-01-02T05:20:14.040Z,14.37
2019-01-02T05:22:41.888Z,16.53
2019-01-02T05:25:09.042Z,12.53
2019-01-02T05:27:36.548Z,14.07
2019-01-02T05:30:08.666Z,16.63
2019-01-02T05:32:36.345Z,18.97
2019-01-02T05:35:04.793Z,12.83
2019-01-02T05:37:32.446Z,13.83
2019-01-02T05:40:00.429Z,18.90
2019-01-02T05:42:28.134Z,12.80
2019-01-02T05:44:55.854Z,11.20
2019-01-02T05:47:23.389Z,24.80
2019-01-02T05:49:51.312Z,15.03
2019-01-02T05:52:18.749Z,12.53
2019-01-02T05:54:46.538Z,14.97
2019-01-02T05:57:13.788Z,12.00
2019-01-02T05:59:41.452Z,12.37
2019-01-02T06:02:08.824Z,12.13
2019-01-02T06:04:36.460Z,13.07
2019-01-02T06:07:04.399Z,10.83
2019-01-02T06:09:31.682Z,12.80
2019-01-02T06:11:58.883Z,18.00
2019-01-02T06:14:26.567Z,11.43
2019-01-02T06:16:54.140Z,16.73
2019-01-02T06:19:21.843Z,17.93
2019-01-02T06:21:49.247Z,13.63
2019-01-02T06:24:16.804Z,11.23
2019-01-02T06:26:47.924Z,13.07
2019-01-02T06:29:16.285Z,9.77
2019-01-02T06:31:43.928Z,22.07
2019-01-02T06:34:11.519Z,14.17
2019-01-02T06:36:39.807Z,18.40
2019-01-02T06:39:08.446Z,14.13
2019-01-02T06:41:36.040Z,14.63
2019-01-02T06:44:03.633Z,15.80
2019-01-02T06:46:31.553Z,12.80
2019-01-02T06:48:59.427Z,13.20
2019-01-02T06:51:26.888Z,20.30
2019-01-02T06:53:54.534Z,10.60
2019-01-02T06:56:22.019Z,16.00
2019-01-02T06:58:50.347Z,15.83
2019-01-02T07:01:18.386Z,18.03
2019-01-02T07:03:45.982Z,17.33
2019-01-02T07:06:14.157Z,13.10
2019-01-02T07:08:41.734Z,18.47
2019-01-02T07:11:09.272Z,17.37
2019-01-02T07:13:36.750Z,19.50
2019-01-02T07:16:04.400Z,23.40
2019-01-02T07:18:31.788Z,12.63
2019-01-02T07:20:59.558Z,18.43
2019-01-02T07:23:27.329Z,22.80
2019-01-02T07:25:54.724Z,21.00
2019-01-02T07:28:22.445Z,16.23
2019-01-02T07:30:49.983Z,19.80
2019-01-02T07:33:19.603Z,18.47
2019-01-02T07:36:31.578Z,21.53
2019-01-02T07:40:11.546Z,16.07
2019-01-02T07:43:28.737Z,15.87
2019-01-02T07:46:55.240Z,16.30
2019-01-02T07:49:54.586Z,10.53
2019-01-02T07:53:03.213Z,10.03
2019-01-02T07:56:28.001Z,15.73
2019-01-02T07:59:34.700Z,14.33
2019-01-02T08:03:15.530Z,15.23
2019-01-02T08:06:27.651Z,14.73
2019-01-02T08:10:05.847Z,17.10
2019-01-02T08:13:26.972Z,12.23
2019-01-02T08:16:39.329Z,14.50
2019-01-02T08:19:34.831Z,8.73
2019-01-02T08:23:12.245Z,12.87
2019-01-02T08:27:05.311Z,8.17
2019-01-02T08:30:36.809Z,9.30
2019-01-02T08:33:58.492Z,10.97
2019-01-02T08:36:54.405Z,18.40
2019-01-02T08:39:49.528Z,12.53
2019-01-02T08:43:07.922Z,18.10
2019-01-02T08:46:46.218Z,18.50
2019-01-02T08:50:09.499Z,14.20
2019-01-02T08:53:08.240Z,22.40
2019-01-02T08:56:40.592Z,17.43
2019-01-02T08:59:44.485Z,21.57
2019-01-02T09:02:59.549Z,21.47
2019-01-02T09:05:55.676Z,18.27
2019-01-02T09:09:13.582Z,21.43
2019-01-02T09:12:13.236Z,18.70
2019-01-02T09:15:23.176Z,18.87
2019-01-02T09:18:49.922Z,19.93
2019-01-02T09:21:54.651Z,22.83
2019-01-02T09:25:07.784Z,22.57
2019-01-02T09:28:41.158Z,16.43
2019-01-02T09:32:17.069Z,18.43
2019-01-02T09:35:43.655Z,19.53
2019-01-02T09:38:49.234Z,18.43
2019-01-02T09:41:58.595Z,16.53
2019-01-02T09:45:22.146Z,17.60
2019-01-02T09:48:28.257Z,18.47
2019-01-02T09:51:51.931Z,16.93
2019-01-02T09:55:26.171Z,17.50
2019-01-02T09:58:51.314Z,19.63
2019-01-02T10:02:20.205Z,9.37
2019-01-02T10:05:43.024Z,11.80
2019-01-02T10:09:12.649Z,14.53
2019-01-02T10:12:22.284Z,14.83
2019-01-02T10:15:29.451Z,21.63
2019-01-02T10:18:52.529Z,16.43
2019-01-02T10:22:23.587Z,21.13
2019-01-02T10:25:50.997Z,17.97
2019-01-02T10:28:51.653Z,18.60
2019-01-02T10:32:57.088Z,16.37
2019-01-02T10:36:44.060Z,19.12
2019-01-02T10:40:28.100Z,33.47
2019-01-02T10:43:45.058Z,20.43
2019-01-02T10:46:55.144Z,18.13
2019-01-02T10:50:13.980Z,18.23
2019-01-02T10:53:55.385Z,13.93
2019-01-02T10:57:42.343Z,22.67
2019-01-02T11:01:09.295Z,10.87
2019-01-02T11:04:52.451Z,16.27
2019-01-02T11:08:06.718Z,12.97
2019-01-02T11:11:25.875Z,17.03
2019-01-02T11:15:07.151Z,15.57
2019-01-02T11:18:41.396Z,13.27
2019-01-02T11:22:21.602Z,12.20
2019-01-02T11:25:36.083Z,15.00
2019-01-02T11:29:04.505Z,12.10
2019-01-02T11:32:44.080Z,16.30
2019-01-02T11:36:06.554Z,10.00
2019-01-02T11:39:24.851Z,18.20
2019-01-02T11:42:56.041Z,20.03
2019-01-02T11:45:24.584Z,10.13
2019-01-02T11:47:52.265Z,12.83
2019-01-02T11:50:19.917Z,18.00
2019-01-02T11:52:47.683Z,15.23
2019-01-02T11:55:15.780Z,13.63
2019-01-02T11:57:43.368Z,11.93
2019-01-02T12:00:14.929Z,9.47
2019-01-02T12:02:42.389Z,12.00
2019-01-02T12:05:10.735Z,12.67
2019-01-02T12:07:37.966Z,13.00
2019-01-02T12:10:09.370Z,14.40
2019-01-02T12:12:37.422Z,7.37
2019-01-02T12:15:06.972Z,12.83
2019-01-02T12:17:34.605Z,7.70
2019-01-02T12:20:02.166Z,11.07
2019-01-02T12:22:31.058Z,10.37
2019-01-02T12:24:58.323Z,12.83
2019-01-02T12:27:25.871Z,12.10
2019-01-02T12:29:53.161Z,11.70
2019-01-02T12:32:20.953Z,9.50
2019-01-02T12:34:48.452Z,10.07
2019-01-02T12:37:15.583Z,6.47
2019-01-02T12:39:43.610Z,8.67
2019-01-02T12:42:10.856Z,11.50
2019-01-02T12:44:38.686Z,11.73
2019-01-02T12:47:06.116Z,6.10
2019-01-02T12:49:33.461Z,6.40
2019-01-02T12:52:01.387Z,6.73
2019-01-02T12:54:28.506Z,8.97
2019-01-02T12:56:56.079Z,7.60
2019-01-02T12:59:27.142Z,10.03
2019-01-02T13:03:07.109Z,6.17
2019-01-02T13:06:40.807Z,12.27
2019-01-02T13:09:27.374Z,3.63
2019-01-02T13:12:56.803Z,4.07
2019-01-02T13:15:47.980Z,4.63
2019-01-02T13:19:12.067Z,6.90
2019-01-02T13:22:43.050Z,8.67
2019-01-02T13:25:24.408Z,5.60
2019-01-02T13:28:30.252Z,6.93
2019-01-02T13:31:44.357Z,8.13
2019-01-02T13:35:29.566Z,4.97
2019-01-02T13:38:17.325Z,3.07
2019-01-02T13:41:33.882Z,5.80
2019-01-02T13:44:33.919Z,3.63
2019-01-02T13:47:56.558Z,5.77
2019-01-02T13:51:00.546Z,4.73
2019-01-02T13:53:28.174Z,4.20
2019-01-02T13:55:56.693Z,5.77
2019-01-02T13:58:24.525Z,3.53
2019-01-02T14:00:51.742Z,4.17
2019-01-02T14:03:19.131Z,6.27
2019-01-02T14:05:49.491Z,5.47
2019-01-02T14:08:17.353Z,4.47
2019-01-02T14:10:44.500Z,4.07
2019-01-02T14:13:12.179Z,8.77
2019-01-02T14:15:40.252Z,7.37
2019-01-02T14:18:08.328Z,5.23
2019-01-02T14:20:37.319Z,6.03
2019-01-02T14:23:04.870Z,5.53
2019-01-02T14:25:32.806Z,6.33
2019-01-02T14:28:01.233Z,1.60
2019-01-02T14:30:28.777Z,4.60
2019-01-02T14:32:56.530Z,2.37
2019-01-02T14:35:24.918Z,7.40
2019-01-02T14:37:52.913Z,4.37
2019-01-02T14:40:24.278Z,7.42
2019-01-02T14:42:52.130Z,6.43
2019-01-02T14:45:19.692Z,5.77
2019-01-02T14:47:46.885Z,4.47
2019-01-02T14:50:14.400Z,3.17
2019-01-02T14:52:43.341Z,4.80
2019-01-02T14:55:11.029Z,6.27
2019-01-02T14:57:38.432Z,10.23
2019-01-02T15:00:11.093Z,10.63
2019-01-02T15:02:38.925Z,3.37
2019-01-02T15:05:06.800Z,5.17
2019-01-02T15:07:34.314Z,3.77
2019-01-02T15:10:01.593Z,2.93
2019-01-02T15:12:29.227Z,3.67
2019-01-02T15:14:56.857Z,3.50
2019-01-02T15:17:25.260Z,5.67
2019-01-02T15:19:53.177Z,2.27
2019-01-02T15:22:20.876Z,4.60
2019-01-02T15:24:49.534Z,7.40
2019-01-02T15:27:17.098Z,4.57
2019-01-02T15:29:44.227Z,5.60
2019-01-02T15:32:11.709Z,4.30
2019-01-02T15:34:39.385Z,4.03
2019-01-02T15:37:07.156Z,4.03
2019-01-02T15:39:34.784Z,4.47
2019-01-02T15:42:02.124Z,3.10
2019-01-02T15:44:29.406Z,2.47
2019-01-02T15:46:57.027Z,3.43
2019-01-02T15:49:24.641Z,4.77
2019-01-02T15:51:52.744Z,6.10
2019-01-02T15:54:20.222Z,7.27
2019-01-02T15:56:48.299Z,2.50
2019-01-02T15:59:15.382Z,8.37
2019-01-02T16:01:42.522Z,4.70
2019-01-02T16:04:10.041Z,5.77
2019-01-02T16:06:37.784Z,2.60
2019-01-02T16:09:07.169Z,4.30
2019-01-02T16:11:34.965Z,4.70
2019-01-02T16:14:03.125Z,2.90
2019-01-02T16:16:30.641Z,4.33
2019-01-02T16:18:58.209Z,6.47
2019-01-02T16:21:25.398Z,7.43
2019-01-02T16:23:52.881Z,8.17
2019-01-02T16:26:20.066Z,3.80
2019-01-02T16:28:47.639Z,3.80
2019-01-02T16:31:15.128Z,3.60
2019-01-02T16:33:42.269Z,4.50
2019-01-02T16:36:10.058Z,5.03
2019-01-02T16:38:38.287Z,5.57
2019-01-02T16:41:05.858Z,5.47
2019-01-02T16:43:33.828Z,6.80
2019-01-02T16:46:01.360Z,4.77
2019-01-02T16:48:29.109Z,4.13
2019-01-02T16:50:57.349Z,8.47
2019-01-02T16:53:24.496Z,5.57
2019-01-02T16:55:52.375Z,3.80
2019-01-02T16:58:20.334Z,4.17
2019-01-02T17:00:47.682Z,5.13
2019-01-02T17:03:15.347Z,7.43
2019-01-02T17:05:42.881Z,7.57
2019-01-02T17:08:10.586Z,5.77
2019-01-02T17:10:38.232Z,3.17
2019-01-02T17:13:05.522Z,7.70
2019-01-02T17:15:33.044Z,5.03
2019-01-02T17:18:00.814Z,4.67
2019-01-02T17:20:29.457Z,7.77
2019-01-02T17:22:56.697Z,7.13
2019-01-02T17:25:24.007Z,3.20
2019-01-02T17:27:52.047Z,5.80
2019-01-02T17:30:21.546Z,8.20
2019-01-02T17:32:49.285Z,7.77
2019-01-02T17:35:16.844Z,4.90
2019-01-02T17:37:43.994Z,6.33
2019-01-02T17:40:11.857Z,8.57
2019-01-02T17:42:39.430Z,5.37
2019-01-02T17:45:08.632Z,7.10
2019-01-02T17:47:36.284Z,5.47
2019-01-02T17:50:04.279Z,3.20
2019-01-02T17:52:31.412Z,7.03
2019-01-02T17:54:58.888Z,3.77
2019-01-02T17:57:26.668Z,3.57
2019-01-02T17:59:54.255Z,7.50
2019-01-02T18:02:21.426Z,3.23
2019-01-02T18:04:48.570Z,3.73
2019-01-02T18:07:16.399Z,5.93
2019-01-02T18:09:44.184Z,4.90
2019-01-02T18:12:11.801Z,5.67
2019-01-02T18:14:39.833Z,4.97
2019-01-02T18:17:07.236Z,3.90
2019-01-02T18:19:34.670Z,3.47
2019-01-02T18:22:02.634Z,5.90
2019-01-02T18:24:29.775Z,3.83
2019-01-02T18:26:57.448Z,3.73
2019-01-02T18:29:24.888Z,5.67
2019-01-02T18:31:53.015Z,3.70
2019-01-02T18:34:20.199Z,4.80
2019-01-02T18:36:47.882Z,4.20
2019-01-02T18:39:15.686Z,4.80
2019-01-02T18:41:42.841Z,4.73
2019-01-02T18:44:10.253Z,7.70
2019-01-02T18:46:37.412Z,2.47
2019-01-02T18:49:05.022Z,7.00
2019-01-02T18:51:32.299Z,3.50
2019-01-02T18:53:59.999Z,5.13
2019-01-02T18:56:27.287Z,3.00
2019-01-02T18:58:54.442Z,4.37
2019-01-02T19:01:22.005Z,4.20
2019-01-02T19:03:49.452Z,5.43
2019-01-02T19:06:17.522Z,6.50
2019-01-02T19:08:44.862Z,10.30
2019-01-02T19:11:12.496Z,6.67
2019-01-02T19:13:39.966Z,5.03
2019-01-02T19:16:07.668Z,3.00
2019-01-02T19:18:35.659Z,4.60
2019-01-02T19:21:03.815Z,4.93
2019-01-02T19:23:31.065Z,9.27
2019-01-02T19:25:58.349Z,5.93
2019-01-02T19:28:25.932Z,7.43
2019-01-02T19:30:53.544Z,6.83
2019-01-02T19:33:21.050Z,6.20
2019-01-02T19:35:50.790Z,3.73
2019-01-02T19:38:18.832Z,9.10
2019-01-02T19:40:47.535Z,9.10
2019-01-02T19:43:15.307Z,8.83
2019-01-02T19:45:43.135Z,5.43
2019-01-02T19:48:10.604Z,8.83
2019-01-02T19:50:38.378Z,6.47
2019-01-02T19:53:06.538Z,6.03
2019-01-02T19:55:34.109Z,3.90
2019-01-02T19:58:01.737Z,7.93
2019-01-02T20:00:29.599Z,9.13
2019-01-02T20:02:57.574Z,6.80
2019-01-02T20:05:25.095Z,7.47
2019-01-02T20:07:52.758Z,3.47
2019-01-02T20:10:21.939Z,4.90
2019-01-02T20:12:50.141Z,2.57
2019-01-02T20:15:18.965Z,6.30
2019-01-02T20:17:49.875Z,7.97
2019-01-02T20:20:19.129Z,5.13
2019-01-02T20:22:46.896Z,5.27
2019-01-02T20:25:14.181Z,3.80
2019-01-02T20:27:42.667Z,5.57
2019-01-02T20:30:10.603Z,3.83
2019-01-02T20:32:37.824Z,1.77
2019-01-02T20:35:06.632Z,5.97
2019-01-02T20:37:34.034Z,6.73
2019-01-02T20:40:02.468Z,4.13
2019-01-02T20:42:31.201Z,3.70
2019-01-02T20:44:58.985Z,4.40
2019-01-02T20:47:26.448Z,6.33
2019-01-02T20:49:54.801Z,4.00
2019-01-02T20:52:22.909Z,5.10
2019-01-02T20:54:50.494Z,3.63
2019-01-02T20:57:19.047Z,2.40
2019-01-02T20:59:46.209Z,5.50
2019-01-02T21:02:13.833Z,5.07
2019-01-02T21:04:41.454Z,6.00
2019-01-02T21:07:13.120Z,13.57
2019-01-02T21:09:40.656Z,5.50
2019-01-02T21:12:09.157Z,5.03
2019-01-02T21:14:36.969Z,6.03
2019-01-02T21:17:04.475Z,5.90
2019-01-02T21:19:33.225Z,3.97
2019-01-02T21:22:01.462Z,6.40
2019-01-02T21:24:29.441Z,5.93
2019-01-02T21:26:56.895Z,9.60
2019-01-02T21:29:24.819Z,5.10
2019-01-02T21:31:52.229Z,8.87
2019-01-02T21:34:20.920Z,7.50
2019-01-02T21:36:49.457Z,11.37
2019-01-02T21:39:17.334Z,18.03
2019-01-02T21:41:45.695Z,21.03
2019-01-02T21:44:12.973Z,16.03
2019-01-02T21:46:40.369Z,14.00
2019-01-02T21:49:08.512Z,17.77
2019-01-02T21:51:36.212Z,15.20
2019-01-02T21:54:03.949Z,12.53
2019-01-02T21:56:31.979Z,12.23
2019-01-02T21:59:00.189Z,17.43
2019-01-02T22:01:28.215Z,17.50
2019-01-02T22:03:56.124Z,17.37
2019-01-02T22:06:24.502Z,19.13
2019-01-02T22:08:52.759Z,18.20
2019-01-02T22:11:21.021Z,19.30
2019-01-02T22:13:49.018Z,11.20
2019-01-02T22:16:16.785Z,7.40
2019-01-02T22:18:44.413Z,4.70
2019-01-02T22:21:11.774Z,7.83
2019-01-02T22:23:40.572Z,7.87
2019-01-02T22:26:08.314Z,2.30
2019-01-02T22:28:35.546Z,5.77
2019-01-02T22:31:02.907Z,4.77
2019-01-02T22:33:30.044Z,3.83
2019-01-02T22:35:58.477Z,6.87
2019-01-02T22:38:26.336Z,3.43
2019-01-02T22:40:54.224Z,4.70
2019-01-02T22:43:22.085Z,5.30
2019-01-02T22:45:50.203Z,5.30
2019-01-02T22:48:17.534Z,4.00
2019-01-02T22:50:45.632Z,3.33
2019-01-02T22:53:13.093Z,1.77
2019-01-02T22:55:40.378Z,4.07
2019-01-02T22:58:09.835Z,4.83
2019-01-02T23:00:56.032Z,4.57
2019-01-02T23:03:42.837Z,7.17
2019-01-02T23:06:38.611Z,6.87
2019-01-02T23:09:26.585Z,3.20
2019-01-02T23:12:13.916Z,3.17
2019-01-02T23:14:59.997Z,5.83
2019-01-02T23:17:59.593Z,3.57
2019-01-02T23:20:39.965Z,5.77
2019-01-02T23:23:27.065Z,9.20
2019-01-02T23:26:16.624Z,9.83
2019-01-02T23:29:13.097Z,7.57
2019-01-02T23:32:00.173Z,8.83
2019-01-02T23:34:56.218Z,5.33
2019-01-02T23:37:43.243Z,9.80
2019-01-02T23:40:29.110Z,6.77
2019-01-02T23:43:15.261Z,7.47
2019-01-02T23:46:08.301Z,7.27
2019-01-02T23:49:13.558Z,7.53
2019-01-02T23:52:06.629Z,7.17
2019-01-02T23:55:05.671Z,5.83
2019-01-02T23:58:04.670Z,5.10
